Time;durP1;ratioP1;P1;durP2;ratioP2;P2;SDS_P1;SDS_P2;PMS_P1;PMS_P2;Temp;Humidity;BMP_temperature;BMP_pressure;BME280_temperature;BME280_humidity;BME280_pressure;Samples;Min_cycle;Max_cycle;Signal;HPM_P1;HPM_P2
2021/04/09 00:01:36;;;;;;;4.55;2.03;;;;;;;2.64;61.95;101955.06;5085438;28;20032;-46
2021/04/09 00:04:02;;;;;;;4.97;2.42;;;;;;;2.65;61.88;101960.16;5089016;28;20028;-46
2021/04/09 00:06:27;;;;;;;5.87;2.60;;;;;;;2.66;61.92;101959.19;5060902;28;727099;-47
2021/04/09 00:08:53;;;;;;;7.65;3.38;;;;;;;2.69;61.90;101956.22;5087624;28;20936;-45
2021/04/09 00:11:18;;;;;;;4.75;2.50;;;;;;;2.49;62.26;101948.75;5088346;28;20032;-46
2021/04/09 00:13:44;;;;;;;5.22;2.70;;;;;;;2.44;62.53;101951.91;5090631;28;20035;-46
2021/04/09 00:16:09;;;;;;;5.47;2.53;;;;;;;2.31;62.94;101943.63;5086907;28;20565;-47
2021/04/09 00:18:35;;;;;;;4.88;2.25;;;;;;;2.29;63.29;101946.44;5088869;28;20178;-48
2021/04/09 00:21:01;;;;;;;6.85;2.58;;;;;;;2.29;62.96;101941.16;5087628;28;20557;-46
2021/04/09 00:23:26;;;;;;;7.95;3.40;;;;;;;2.25;62.84;101939.00;5090446;28;20024;-46
2021/04/09 00:25:52;;;;;;;7.55;2.85;;;;;;;2.13;63.30;101931.38;5088009;28;20492;-46
2021/04/09 00:28:18;;;;;;;5.72;2.42;;;;;;;2.06;63.67;101930.41;5090051;28;20061;-45
2021/04/09 00:30:43;;;;;;;7.63;2.70;;;;;;;1.97;63.77;101923.44;5088644;28;20109;-46
2021/04/09 00:33:09;;;;;;;9.73;2.70;;;;;;;2.00;63.68;101930.25;5091426;28;20652;-46
2021/04/09 00:35:34;;;;;;;4.15;2.08;;;;;;;1.99;63.83;101923.31;5091467;28;20027;-45
2021/04/09 00:38:00;;;;;;;3.05;2.13;;;;;;;1.91;64.27;101921.44;5089688;28;20135;-46
2021/04/09 00:40:26;;;;;;;7.20;2.40;;;;;;;1.89;64.21;101928.72;5072975;28;20373;-46
2021/04/09 00:42:51;;;;;;;3.83;1.92;;;;;;;1.79;64.56;101912.16;5092621;28;20580;-46
2021/04/09 00:45:18;;;;;;;7.10;3.10;;;;;;;1.81;64.56;101916.34;5087366;28;20047;-46
2021/04/09 00:47:44;;;;;;;5.70;2.58;;;;;;;1.76;64.60;101912.50;5090477;28;20043;-46
2021/04/09 00:50:10;;;;;;;4.10;2.50;;;;;;;1.76;64.70;101904.56;5089118;28;20016;-47
2021/04/09 00:52:38;;;;;;;5.18;2.67;;;;;;;1.89;64.10;101898.81;5088643;28;20024;-45
2021/04/09 00:55:05;;;;;;;6.13;2.50;;;;;;;1.89;64.26;101901.47;5088671;28;20062;-46
2021/04/09 00:57:31;;;;;;;6.15;2.42;;;;;;;1.79;64.41;101896.31;5090491;28;20111;-46
2021/04/09 00:59:57;;;;;;;4.00;2.22;;;;;;;1.83;64.37;101891.56;5088084;28;20028;-46
2021/04/09 01:02:23;;;;;;;6.90;2.53;;;;;;;1.76;64.63;101894.81;5087931;28;20036;-47
2021/04/09 01:04:49;;;;;;;5.18;2.55;;;;;;;1.66;65.14;101882.78;5090395;28;20051;-46
2021/04/09 01:07:15;;;;;;;6.10;2.97;;;;;;;1.62;65.36;101876.16;5087377;28;20023;-45
2021/04/09 01:09:40;;;;;;;7.25;2.92;;;;;;;1.69;64.77;101875.34;5090208;28;20528;-46
2021/04/09 01:12:07;;;;;;;6.43;2.85;;;;;;;1.68;65.09;101878.97;5093152;28;20041;-46
2021/04/09 01:14:33;;;;;;;4.85;2.75;;;;;;;1.65;65.18;101874.00;5088594;28;20020;-46
2021/04/09 01:17:05;;;;;;;5.47;2.50;;;;;;;1.56;65.95;101866.22;5088491;28;20105;-48
2021/04/09 01:20:01;;;;;;;2.85;2.33;;;;;;;1.46;65.96;101867.19;5088939;28;20023;-46
2021/04/09 01:22:33;;;;;;;9.23;3.03;;;;;;;1.57;65.82;101863.41;5075500;28;20031;-46
2021/04/09 01:25:29;;;;;;;5.82;3.00;;;;;;;1.48;65.98;101859.94;5089670;28;20016;-48
2021/04/09 01:28:35;;;;;;;6.28;3.67;;;;;;;1.54;65.78;101850.53;5091638;28;20124;-46
2021/04/09 01:31:04;;;;;;;7.47;3.40;;;;;;;1.59;65.66;101847.41;5065667;28;20402;-46
2021/04/09 01:33:36;;;;;;;5.18;2.88;;;;;;;1.68;65.23;101836.69;5097131;28;20035;-46
2021/04/09 01:36:08;;;;;;;5.40;4.00;;;;;;;1.65;65.37;101830.91;5083310;28;20037;-46
2021/04/09 01:38:39;;;;;;;6.05;3.45;;;;;;;1.71;65.01;101833.72;5091978;28;20024;-46
2021/04/09 01:41:07;;;;;;;7.57;3.40;;;;;;;1.67;65.27;101828.94;5090735;28;20044;-48
2021/04/09 01:43:34;;;;;;;6.45;3.20;;;;;;;1.66;65.07;101822.00;5094615;28;20020;-48
2021/04/09 01:46:01;;;;;;;9.82;3.72;;;;;;;1.62;65.43;101818.88;5096584;28;20089;-47
2021/04/09 01:48:28;;;;;;;4.38;2.92;;;;;;;1.65;65.17;101809.78;5095261;28;20053;-46
2021/04/09 01:50:54;;;;;;;9.38;3.47;;;;;;;1.67;64.90;101803.34;5089991;28;20036;-46
2021/04/09 01:53:26;;;;;;;6.63;3.25;;;;;;;1.54;65.45;101807.44;5091312;28;20035;-48
2021/04/09 01:55:54;;;;;;;8.55;4.25;;;;;;;1.58;65.16;101795.56;5093349;28;20554;-46
2021/04/09 01:58:22;;;;;;;7.43;3.45;;;;;;;1.48;65.13;101793.91;5090805;28;20143;-46
2021/04/09 02:00:48;;;;;;;3.85;2.55;;;;;;;1.51;65.25;101788.31;5075457;28;20040;-45
2021/04/09 02:03:18;;;;;;;6.28;3.67;;;;;;;1.40;65.75;101775.41;5096778;28;20023;-46
2021/04/09 02:05:47;;;;;;;5.72;3.63;;;;;;;1.51;65.08;101779.56;5093976;28;20481;-46
2021/04/09 02:08:13;;;;;;;9.13;4.05;;;;;;;1.45;65.11;101777.56;5087862;28;20143;-45
2021/04/09 02:10:40;;;;;;;7.13;4.15;;;;;;;1.48;65.12;101772.78;5087889;28;20027;-46
2021/04/09 02:13:07;;;;;;;8.38;4.18;;;;;;;1.47;64.92;101765.03;5092614;28;20035;-46
2021/04/09 02:15:33;;;;;;;5.38;3.50;;;;;;;1.43;65.12;101764.50;5090446;28;20031;-45
2021/04/09 02:17:59;;;;;;;7.97;3.67;;;;;;;1.45;64.97;101759.09;5092129;28;20020;-45
2021/04/09 02:20:24;;;;;;;11.60;6.03;;;;;;;1.35;65.50;101753.13;5092839;28;20087;-45
2021/04/09 02:22:52;;;;;;;6.45;3.35;;;;;;;1.32;65.68;101756.91;5091412;28;20031;-45
2021/04/09 02:25:20;;;;;;;9.35;5.13;;;;;;;1.39;65.21;101747.34;5091730;28;20160;-45
2021/04/09 02:27:46;;;;;;;8.13;3.50;;;;;;;1.21;65.57;101749.28;5090747;28;20058;-45
2021/04/09 02:30:14;;;;;;;8.18;3.78;;;;;;;1.21;65.04;101742.19;5090202;28;20028;-46
2021/04/09 02:32:39;;;;;;;5.85;3.95;;;;;;;1.28;65.00;101739.75;5089775;28;21789;-45
2021/04/09 02:35:07;;;;;;;7.25;3.65;;;;;;;1.25;65.14;101740.06;5093278;28;20049;-45
2021/04/09 02:37:34;;;;;;;7.97;4.20;;;;;;;1.32;64.59;101735.78;5089447;28;20420;-45
2021/04/09 02:40:07;;;;;;;7.85;3.22;;;;;;;1.29;64.91;101736.13;5088569;28;20446;-45
2021/04/09 02:42:34;;;;;;;7.93;3.17;;;;;;;1.25;65.27;101733.94;5092167;28;20031;-45
2021/04/09 02:45:01;;;;;;;6.38;3.50;;;;;;;1.29;64.88;101730.84;5091993;28;20024;-46
2021/04/09 02:47:29;;;;;;;11.30;3.08;;;;;;;1.24;65.04;101734.94;5090678;28;20036;-46
2021/04/09 02:50:10;;;;;;;6.05;3.00;;;;;;;1.32;64.62;101724.41;5089106;28;20520;-45
2021/04/09 02:52:43;;;;;;;7.10;2.83;;;;;;;1.28;65.35;101723.91;5092260;28;20034;-45
2021/04/09 02:55:14;;;;;;;9.77;3.38;;;;;;;1.18;65.74;101723.22;5090527;28;20111;-46
2021/04/09 02:57:41;;;;;;;6.68;3.20;;;;;;;1.20;65.67;101723.88;5089204;28;20587;-45
2021/04/09 03:00:09;;;;;;;8.82;4.28;;;;;;;1.13;66.00;101726.34;5089336;28;20059;-46
2021/04/09 03:02:36;;;;;;;6.68;3.08;;;;;;;1.17;65.67;101727.69;5092915;28;20052;-45
2021/04/09 03:05:05;;;;;;;11.07;4.72;;;;;;;1.12;66.04;101722.06;5089239;28;20032;-46
2021/04/09 03:07:30;;;;;;;7.25;4.20;;;;;;;1.17;65.66;101709.19;5089157;28;20036;-45
2021/04/09 03:09:58;;;;;;;8.90;3.85;;;;;;;1.15;65.69;101715.63;5080253;28;20952;-45
2021/04/09 03:12:24;;;;;;;9.50;4.30;;;;;;;1.19;65.54;101709.03;5093839;28;20032;-45
2021/04/09 03:14:51;;;;;;;9.15;4.10;;;;;;;1.16;66.09;101704.91;5091612;28;20028;-45
2021/04/09 03:17:28;;;;;;;7.25;3.72;;;;;;;1.05;66.79;101699.94;5088080;28;20028;-45
2021/04/09 03:19:54;;;;;;;9.07;3.88;;;;;;;0.98;66.64;101695.47;5089543;28;20023;-46
2021/04/09 03:22:20;;;;;;;8.95;4.18;;;;;;;1.00;66.29;101690.88;5090198;28;20478;-46
2021/04/09 03:24:46;;;;;;;7.57;3.15;;;;;;;0.93;67.04;101703.06;5091254;28;20059;-45
2021/04/09 03:27:14;;;;;;;5.90;3.05;;;;;;;0.90;66.94;101691.84;5092117;28;20640;-45
2021/04/09 03:29:41;;;;;;;5.25;3.38;;;;;;;0.84;67.57;101692.47;5092490;28;20028;-44
2021/04/09 03:32:07;;;;;;;7.03;3.70;;;;;;;0.88;67.21;101691.16;5079141;28;20031;-47
2021/04/09 03:34:33;;;;;;;7.32;3.70;;;;;;;0.85;67.24;101685.38;5093460;28;20681;-45
2021/04/09 03:36:58;;;;;;;5.38;3.40;;;;;;;0.86;67.25;101687.84;5091625;28;20031;-46
2021/04/09 03:39:24;;;;;;;10.18;3.80;;;;;;;0.82;67.15;101677.78;5090715;28;20076;-45
2021/04/09 03:41:49;;;;;;;6.10;3.25;;;;;;;0.79;67.05;101675.50;5094101;28;20028;-45
2021/04/09 03:44:15;;;;;;;4.90;3.35;;;;;;;0.80;67.23;101672.69;5089297;28;20663;-45
2021/04/09 03:46:40;;;;;;;6.90;3.72;;;;;;;0.80;67.12;101682.41;5093840;28;20362;-44
2021/04/09 03:49:06;;;;;;;6.85;4.05;;;;;;;0.77;67.30;101673.00;5086044;28;20474;-45
2021/04/09 03:51:31;;;;;;;8.05;3.67;;;;;;;0.72;67.73;101677.09;5087233;28;20032;-45
2021/04/09 03:53:58;;;;;;;5.05;2.97;;;;;;;0.62;68.12;101669.34;5090757;28;20449;-45
2021/04/09 03:56:23;;;;;;;6.55;3.63;;;;;;;0.66;67.31;101668.03;5086914;28;20111;-46
2021/04/09 03:58:50;;;;;;;7.75;4.10;;;;;;;0.70;67.77;101664.06;5092682;28;20114;-45
2021/04/09 04:01:16;;;;;;;7.32;3.17;;;;;;;0.56;68.43;101665.53;5088827;28;20019;-46
2021/04/09 04:03:42;;;;;;;8.63;4.55;;;;;;;0.55;68.25;101655.97;5093045;28;20497;-44
2021/04/09 04:06:07;;;;;;;7.25;4.00;;;;;;;0.64;67.63;101662.09;5091426;28;20031;-46
2021/04/09 04:08:33;;;;;;;8.25;4.05;;;;;;;0.61;68.13;101659.78;5088092;28;20045;-45
2021/04/09 04:10:58;;;;;;;9.75;4.60;;;;;;;0.62;68.19;101657.97;5090062;28;20066;-45
2021/04/09 04:13:24;;;;;;;9.23;4.35;;;;;;;0.65;67.96;101657.63;5092727;28;20043;-45
2021/04/09 04:15:49;;;;;;;8.90;3.88;;;;;;;0.64;67.73;101656.00;5091717;28;20481;-48
2021/04/09 04:18:15;;;;;;;7.47;3.92;;;;;;;0.60;67.65;101656.31;5096058;28;20638;-47
2021/04/09 04:20:41;;;;;;;7.38;4.13;;;;;;;0.59;68.18;101648.56;5088084;28;20032;-45
2021/04/09 04:23:06;;;;;;;7.10;3.50;;;;;;;0.63;67.81;101649.06;5092062;28;20057;-45
2021/04/09 04:25:32;;;;;;;4.82;3.20;;;;;;;0.48;68.56;101640.94;5088981;28;20889;-45
2021/04/09 04:27:58;;;;;;;19.58;3.55;;;;;;;0.54;67.96;101648.22;5092909;28;20545;-45
2021/04/09 04:30:23;;;;;;;5.28;3.60;;;;;;;0.57;68.01;101640.00;5088316;28;20096;-45
2021/04/09 04:32:49;;;;;;;8.70;3.50;;;;;;;0.58;68.10;101647.75;5086231;28;20023;-45
2021/04/09 04:35:14;;;;;;;7.88;4.05;;;;;;;0.58;68.20;101625.81;5092577;28;20038;-47
2021/04/09 04:37:40;;;;;;;8.15;3.38;;;;;;;0.58;67.93;101642.47;5091741;28;20047;-46
2021/04/09 04:40:06;;;;;;;9.35;3.63;;;;;;;0.55;68.18;101626.16;5087968;28;20063;-46
2021/04/09 04:42:32;;;;;;;5.45;2.63;;;;;;;0.58;68.17;101639.00;5092055;28;20068;-46
2021/04/09 04:44:57;;;;;;;5.82;3.08;;;;;;;0.60;67.87;101639.66;5090440;28;20032;-45
2021/04/09 04:47:23;;;;;;;11.55;3.83;;;;;;;0.59;68.21;101633.56;5090835;28;20051;-46
2021/04/09 04:49:49;;;;;;;10.07;3.55;;;;;;;0.67;67.71;101635.38;5091050;28;20031;-47
2021/04/09 04:52:14;;;;;;;7.20;3.78;;;;;;;0.75;67.31;101629.31;5091084;28;20114;-46
2021/04/09 04:54:40;;;;;;;8.65;3.53;;;;;;;0.84;67.06;101630.97;5091293;28;20051;-46
2021/04/09 04:57:05;;;;;;;8.35;4.47;;;;;;;0.85;66.81;101635.25;5092486;28;20493;-45
2021/04/09 04:59:31;;;;;;;8.02;3.38;;;;;;;0.96;66.07;101629.69;5090469;28;20826;-48
2021/04/09 05:01:56;;;;;;;9.23;3.55;;;;;;;1.05;66.03;101633.13;5097582;28;20489;-45
2021/04/09 05:04:23;;;;;;;8.38;3.45;;;;;;;1.10;66.44;101630.84;5094329;28;20805;-48
2021/04/09 05:06:49;;;;;;;7.55;3.60;;;;;;;1.10;66.35;101633.50;5096861;28;20522;-45
2021/04/09 05:09:14;;;;;;;6.43;3.35;;;;;;;1.13;66.60;101630.50;5093452;28;20032;-46
2021/04/09 05:11:40;;;;;;;8.10;4.63;;;;;;;1.22;66.13;101629.50;5094957;28;20027;-45
2021/04/09 05:14:05;;;;;;;6.70;3.80;;;;;;;1.23;65.59;101631.16;5088338;28;20420;-47
2021/04/09 05:16:31;;;;;;;8.32;4.18;;;;;;;1.30;65.51;101631.34;5086843;28;20511;-46
2021/04/09 05:18:56;;;;;;;7.18;3.80;;;;;;;1.37;65.12;101632.31;5091228;28;20073;-45
2021/04/09 05:21:22;;;;;;;6.28;3.33;;;;;;;1.41;65.17;101623.06;5092053;28;20489;-45
2021/04/09 05:23:47;;;;;;;5.53;3.80;;;;;;;1.52;64.07;101626.19;5090492;28;20031;-45
2021/04/09 05:26:13;;;;;;;6.70;3.40;;;;;;;1.62;64.49;101630.50;5089199;28;20027;-46
2021/04/09 05:28:38;;;;;;;8.50;4.00;;;;;;;1.80;63.80;101620.53;5083323;28;20031;-44
2021/04/09 05:31:04;;;;;;;6.32;4.35;;;;;;;1.76;63.83;101619.22;5094373;28;20043;-45
2021/04/09 05:33:29;;;;;;;5.43;2.90;;;;;;;1.83;62.96;101622.03;5085151;28;20050;-45
2021/04/09 05:35:55;;;;;;;5.65;3.35;;;;;;;1.99;62.66;101606.13;5094993;28;20027;-47
2021/04/09 05:38:21;;;;;;;6.63;3.28;;;;;;;2.18;61.83;101607.53;5091971;28;20024;-47
2021/04/09 05:40:46;;;;;;;6.55;3.40;;;;;;;2.35;61.81;101609.09;5087143;28;20036;-45
2021/04/09 05:43:12;;;;;;;6.10;3.58;;;;;;;2.34;61.87;101594.22;5091894;28;20032;-45
2021/04/09 05:45:37;;;;;;;7.07;3.95;;;;;;;2.30;61.32;101604.31;5090269;28;20028;-45
2021/04/09 05:48:05;;;;;;;7.68;3.75;;;;;;;2.32;61.36;101597.03;5090993;28;20131;-46
2021/04/09 05:50:31;;;;;;;8.43;4.15;;;;;;;2.36;61.52;101586.94;5088474;28;20027;-45
2021/04/09 05:52:57;;;;;;;5.32;3.22;;;;;;;2.35;61.18;101583.47;5090831;28;20500;-45
2021/04/09 05:55:22;;;;;;;6.47;4.43;;;;;;;2.34;61.44;101581.00;5090922;28;20031;-45
2021/04/09 05:57:48;;;;;;;6.82;3.55;;;;;;;2.37;61.31;101583.31;5086807;28;20909;-45
2021/04/09 06:00:14;;;;;;;9.00;3.85;;;;;;;2.43;61.03;101580.78;5089723;28;20020;-46
2021/04/09 06:02:40;;;;;;;8.10;4.40;;;;;;;2.51;60.81;101581.72;5090325;28;20036;-46
2021/04/09 06:05:06;;;;;;;7.55;4.15;;;;;;;2.60;60.60;101578.84;5087753;28;20024;-46
2021/04/09 06:07:32;;;;;;;11.48;4.60;;;;;;;2.58;60.49;101572.09;5091487;28;20024;-45
2021/04/09 06:09:57;;;;;;;8.00;3.88;;;;;;;2.79;60.76;101577.56;5088279;28;20114;-45
2021/04/09 06:12:23;;;;;;;7.10;3.53;;;;;;;2.99;60.01;101580.56;5090621;28;20024;-46
2021/04/09 06:14:51;;;;;;;7.60;4.10;;;;;;;2.98;58.87;101570.97;5091533;28;20085;-46
2021/04/09 06:17:17;;;;;;;6.40;4.00;;;;;;;3.06;59.37;101570.91;5094166;28;20119;-47
2021/04/09 06:19:42;;;;;;;5.43;3.72;;;;;;;3.12;59.02;101562.25;5091628;28;20115;-45
2021/04/09 06:22:08;;;;;;;9.20;4.30;;;;;;;3.23;58.83;101561.84;5094695;28;21709;-48
2021/04/09 06:24:33;;;;;;;5.43;3.35;;;;;;;3.26;58.51;101564.13;5090104;28;20036;-46
2021/04/09 06:26:59;;;;;;;6.07;3.83;;;;;;;3.51;58.03;101563.88;5089870;28;20031;-48
2021/04/09 06:29:24;;;;;;;6.10;4.00;;;;;;;3.62;57.30;101558.13;5092093;28;20103;-46
2021/04/09 06:31:50;;;;;;;8.00;4.22;;;;;;;3.77;56.56;101545.69;5092970;28;20114;-47
2021/04/09 06:34:15;;;;;;;7.18;4.95;;;;;;;4.16;55.61;101552.50;5093741;28;20028;-48
2021/04/09 06:36:41;;;;;;;12.13;4.75;;;;;;;4.64;54.62;101539.53;5091255;28;20908;-45
2021/04/09 06:39:06;;;;;;;8.35;4.18;;;;;;;4.90;53.64;101547.75;5088623;28;20089;-46
2021/04/09 06:41:34;;;;;;;6.00;3.15;;;;;;;4.62;54.07;101542.38;5093866;28;20024;-48
2021/04/09 06:44:00;;;;;;;5.55;3.83;;;;;;;4.67;53.57;101528.53;5091522;28;20028;-45
2021/04/09 06:46:26;;;;;;;7.60;4.38;;;;;;;4.70;53.98;101531.63;5091352;28;20023;-45
2021/04/09 06:48:51;;;;;;;7.72;3.70;;;;;;;4.93;53.80;101531.44;5092187;28;20031;-46
2021/04/09 06:51:18;;;;;;;11.88;4.30;;;;;;;4.69;53.70;101542.44;5090102;28;20114;-45
2021/04/09 06:53:48;;;;;;;6.90;3.72;;;;;;;4.68;53.33;101533.66;5073051;28;20151;-46
2021/04/09 06:56:15;;;;;;;11.05;4.85;;;;;;;4.76;53.56;101543.31;5094923;28;20024;-45
2021/04/09 06:58:46;;;;;;;6.32;4.22;;;;;;;4.63;53.47;101537.88;5096171;28;20035;-45
2021/04/09 07:01:12;;;;;;;7.75;3.80;;;;;;;4.96;53.26;101533.69;5093140;28;20084;-45
2021/04/09 07:03:38;;;;;;;7.10;3.75;;;;;;;5.07;52.86;101532.38;5090328;28;20027;-46
2021/04/09 07:06:04;;;;;;;13.63;4.63;;;;;;;5.54;52.24;101536.97;5092983;28;20054;-46
2021/04/09 07:08:29;;;;;;;8.05;4.82;;;;;;;5.96;51.50;101532.53;5092262;28;20039;-46
2021/04/09 07:10:55;;;;;;;5.72;4.03;;;;;;;5.92;50.55;101526.75;5091121;28;20084;-46
2021/04/09 07:13:21;;;;;;;7.32;4.32;;;;;;;6.11;50.16;101525.22;5074819;28;20555;-45
2021/04/09 07:15:46;;;;;;;9.00;4.78;;;;;;;5.92;50.69;101526.75;5092666;28;20027;-45
2021/04/09 07:18:15;;;;;;;9.05;4.88;;;;;;;5.90;50.23;101518.16;5096471;28;20035;-47
2021/04/09 07:20:42;;;;;;;8.90;4.40;;;;;;;5.89;51.02;101521.00;5094385;28;20089;-47
2021/04/09 07:23:09;;;;;;;8.15;4.95;;;;;;;5.75;50.26;101510.31;5094801;28;20023;-47
2021/04/09 07:25:38;;;;;;;7.80;4.13;;;;;;;5.84;50.37;101512.78;5093957;28;20030;-45
2021/04/09 07:28:19;;;;;;;8.05;4.45;;;;;;;5.83;50.75;101514.63;5092441;28;20100;-48
2021/04/09 07:30:50;;;;;;;7.35;4.35;;;;;;;5.92;51.34;101516.13;5090507;28;20498;-47
2021/04/09 07:33:17;;;;;;;6.60;3.80;;;;;;;5.99;50.01;101502.84;5094638;28;20039;-45
2021/04/09 07:35:51;;;;;;;6.88;4.95;;;;;;;5.83;50.32;101505.84;5091647;28;20032;-46
2021/04/09 07:38:34;;;;;;;8.23;5.00;;;;;;;6.06;49.75;101499.19;5092312;28;20028;-45
2021/04/09 07:41:05;;;;;;;7.97;4.53;;;;;;;6.16;49.85;101504.16;5089393;28;20020;-46
2021/04/09 07:43:35;;;;;;;8.52;5.45;;;;;;;6.31;49.93;101504.81;5091980;28;20043;-49
2021/04/09 07:46:03;;;;;;;11.07;5.10;;;;;;;6.36;49.56;101506.84;5090827;28;20038;-46
2021/04/09 07:48:37;;;;;;;7.30;4.95;;;;;;;6.36;48.82;101491.72;5089907;28;20034;-45
2021/04/09 07:51:05;;;;;;;8.75;5.32;;;;;;;6.43;47.97;101497.03;5089403;28;20030;-46
2021/04/09 07:53:30;;;;;;;8.50;4.55;;;;;;;6.35;48.25;101495.38;5092874;28;20032;-46
2021/04/09 07:56:02;;;;;;;11.32;6.45;;;;;;;6.42;47.93;101494.56;5099876;28;20089;-48
2021/04/09 07:58:28;;;;;;;9.57;5.30;;;;;;;6.46;48.26;101490.47;5092166;28;20115;-46
2021/04/09 08:00:53;;;;;;;7.13;4.80;;;;;;;6.23;47.97;101489.00;5091144;28;20131;-48
2021/04/09 08:03:32;;;;;;;8.30;5.47;;;;;;;6.19;47.89;101490.44;5091013;28;20039;-46
2021/04/09 08:06:24;;;;;;;9.43;5.18;;;;;;;6.25;48.10;101494.13;5091170;28;20028;-48
2021/04/09 08:08:49;;;;;;;14.00;5.60;;;;;;;6.36;48.40;101485.56;5089167;28;20508;-46
2021/04/09 08:11:26;;;;;;;9.75;5.25;;;;;;;6.33;48.41;101492.13;5091416;28;20134;-47
2021/04/09 08:14:03;;;;;;;8.32;5.13;;;;;;;6.23;48.12;101475.69;5090000;28;20024;-47
2021/04/09 08:16:30;;;;;;;14.93;6.60;;;;;;;6.42;48.44;101476.75;5091781;28;20047;-46
2021/04/09 08:19:21;;;;;;;10.23;5.32;;;;;;;6.45;47.77;101483.50;5091301;28;20075;-46
2021/04/09 08:21:54;;;;;;;10.15;4.90;;;;;;;6.72;47.32;101479.88;5091818;28;20039;-45
2021/04/09 08:24:23;;;;;;;9.43;4.97;;;;;;;6.78;46.96;101489.69;5088527;28;20032;-46
2021/04/09 08:26:50;;;;;;;12.30;5.80;;;;;;;6.87;47.19;101469.81;5094023;28;20105;-47
2021/04/09 08:29:16;;;;;;;8.82;4.78;;;;;;;7.02;47.50;101477.63;5090782;28;20027;-47
2021/04/09 08:31:42;;;;;;;11.88;5.70;;;;;;;7.11;46.86;101470.22;5091938;28;20078;-46
2021/04/09 08:34:11;;;;;;;8.93;5.50;;;;;;;7.30;47.09;101487.19;5090752;28;20024;-46
2021/04/09 08:36:38;;;;;;;10.43;5.05;;;;;;;7.28;46.85;101471.41;5086890;28;20117;-45
2021/04/09 08:39:06;;;;;;;9.20;5.50;;;;;;;7.51;47.00;101468.25;5090138;28;20028;-46
2021/04/09 08:41:32;;;;;;;8.77;5.70;;;;;;;7.12;47.13;101469.19;5088099;28;20030;-45
2021/04/09 08:43:58;;;;;;;18.55;7.38;;;;;;;7.25;47.23;101469.97;5088132;28;20028;-47
2021/04/09 08:46:24;;;;;;;6.85;4.88;;;;;;;7.29;47.53;101470.38;5089529;28;20060;-46
2021/04/09 08:48:52;;;;;;;13.05;5.82;;;;;;;7.51;47.79;101453.06;5089490;28;20067;-46
2021/04/09 08:51:22;;;;;;;9.27;4.68;;;;;;;7.60;47.32;101458.19;5090541;28;20023;-46
2021/04/09 08:53:48;;;;;;;10.95;5.40;;;;;;;7.72;45.90;101452.00;5094382;28;20477;-46
2021/04/09 08:56:14;;;;;;;9.77;5.45;;;;;;;7.52;47.72;101449.38;5093354;28;20035;-46
2021/04/09 08:58:44;;;;;;;11.65;6.22;;;;;;;7.70;46.90;101458.53;5087352;28;20065;-46
2021/04/09 09:01:12;;;;;;;8.90;5.97;;;;;;;7.87;46.23;101451.69;5089738;28;20550;-46
2021/04/09 09:03:38;;;;;;;12.98;5.53;;;;;;;8.22;45.71;101459.31;5088657;28;20040;-46
2021/04/09 09:06:05;;;;;;;11.13;5.93;;;;;;;8.46;46.16;101445.22;5089987;28;20387;-46
2021/04/09 09:08:43;;;;;;;8.70;5.53;;;;;;;8.56;44.94;101442.88;5089566;28;20032;-45
2021/04/09 09:11:13;;;;;;;6.95;5.00;;;;;;;8.63;44.47;101443.66;5086807;28;20032;-46
2021/04/09 09:13:43;;;;;;;9.90;5.13;;;;;;;8.23;45.35;101434.25;5087805;28;20116;-46
2021/04/09 09:16:21;;;;;;;19.00;7.13;;;;;;;8.52;45.76;101441.69;5092874;28;20555;-45
2021/04/09 09:18:54;;;;;;;11.73;5.45;;;;;;;8.42;45.35;101433.31;5089075;28;20521;-45
2021/04/09 09:21:24;;;;;;;8.32;5.53;;;;;;;8.44;45.12;101426.75;5089470;28;20146;-46
2021/04/09 09:23:50;;;;;;;10.32;5.40;;;;;;;9.01;43.67;101426.66;5087999;28;20200;-48
2021/04/09 09:26:40;;;;;;;11.93;4.93;;;;;;;9.52;41.89;101431.66;5092233;28;20688;-46
2021/04/09 09:29:25;;;;;;;12.27;6.15;;;;;;;9.42;42.71;101415.31;5089403;28;20073;-46
2021/04/09 09:32:05;;;;;;;9.43;4.88;;;;;;;9.16;43.56;101407.59;5090544;28;20089;-46
2021/04/09 09:34:32;;;;;;;7.75;5.25;;;;;;;9.19;43.29;101413.31;5091834;28;20366;-47
2021/04/09 09:37:18;;;;;;;11.35;6.03;;;;;;;9.73;42.02;101418.84;5087920;28;20711;-46
2021/04/09 09:39:46;;;;;;;8.45;5.70;;;;;;;9.79;42.59;101408.03;5089753;28;20123;-46
2021/04/09 09:42:21;;;;;;;10.52;5.63;;;;;;;10.08;42.35;101414.44;5088499;28;20616;-47
2021/04/09 09:44:53;;;;;;;8.90;5.45;;;;;;;9.57;42.25;101405.03;5087492;28;20077;-46
2021/04/09 09:47:32;;;;;;;10.50;6.30;;;;;;;9.86;41.86;101399.91;5088807;28;20375;-47
2021/04/09 09:50:13;;;;;;;7.95;5.68;;;;;;;9.55;42.87;101412.47;5090990;28;20020;-46
2021/04/09 09:52:55;;;;;;;15.50;6.40;;;;;;;9.66;43.19;101392.16;5091811;28;20031;-45
2021/04/09 09:55:25;;;;;;;13.32;6.00;;;;;;;9.98;42.04;101396.25;5094198;28;20024;-45
2021/04/09 09:57:52;;;;;;;10.25;5.03;;;;;;;10.05;41.13;101395.31;5091532;28;20483;-45
2021/04/09 10:00:32;;;;;;;9.45;6.05;;;;;;;9.82;42.07;101386.19;5086507;28;20153;-46
2021/04/09 10:03:14;;;;;;;10.95;5.95;;;;;;;10.15;41.72;101396.41;5091501;28;20543;-45
2021/04/09 10:05:42;;;;;;;14.63;5.75;;;;;;;10.22;41.91;101377.56;5088640;28;20032;-46
2021/04/09 10:08:08;;;;;;;10.00;6.15;;;;;;;10.36;42.06;101370.97;5089582;28;20042;-46
2021/04/09 10:10:42;;;;;;;11.43;6.10;;;;;;;10.22;41.57;101370.34;5088401;28;20550;-48
2021/04/09 10:13:14;;;;;;;10.00;6.70;;;;;;;10.86;41.16;101367.84;5089812;28;20060;-48
2021/04/09 10:15:40;;;;;;;11.68;7.15;;;;;;;10.86;40.87;101365.97;5088351;28;20027;-46
2021/04/09 10:18:06;;;;;;;19.35;8.38;;;;;;;11.25;39.37;101363.56;5093465;28;20038;-46
2021/04/09 10:20:32;;;;;;;12.30;7.45;;;;;;;11.35;38.58;101357.59;5089425;28;20055;-47
2021/04/09 10:22:57;;;;;;;12.00;7.95;;;;;;;11.25;39.10;101346.66;5091117;28;20101;-46
2021/04/09 10:25:30;;;;;;;15.00;7.03;;;;;;;11.63;38.44;101344.19;5091458;28;20474;-46
2021/04/09 10:27:56;;;;;;;13.02;7.55;;;;;;;11.75;37.56;101341.44;5087868;28;20162;-47
2021/04/09 10:30:26;;;;;;;12.05;7.20;;;;;;;11.79;37.61;101343.44;5086502;28;20098;-46
2021/04/09 10:32:52;;;;;;;11.82;7.40;;;;;;;12.01;37.22;101331.97;5070087;28;20044;-49
2021/04/09 10:35:28;;;;;;;20.55;7.88;;;;;;;12.08;36.88;101335.34;5085804;28;20355;-46
2021/04/09 10:38:07;;;;;;;12.93;7.47;;;;;;;11.76;36.25;101337.72;5086171;28;20032;-46
2021/04/09 10:40:33;;;;;;;13.38;7.68;;;;;;;12.01;36.99;101340.84;5085046;28;20058;-46
2021/04/09 10:43:00;;;;;;;10.40;7.30;;;;;;;12.32;36.21;101336.00;5087336;28;20808;-47
2021/04/09 10:45:26;;;;;;;13.15;7.18;;;;;;;12.31;36.75;101340.53;5073418;28;20059;-46
2021/04/09 10:47:54;;;;;;;11.32;7.25;;;;;;;12.56;35.77;101331.22;5087965;28;20114;-47
2021/04/09 10:50:20;;;;;;;10.68;7.35;;;;;;;12.57;35.69;101328.31;5088748;28;20038;-46
2021/04/09 10:52:46;;;;;;;13.85;7.28;;;;;;;12.93;35.74;101326.13;5089535;28;20744;-46
2021/04/09 10:55:12;;;;;;;10.43;7.45;;;;;;;12.66;36.01;101323.31;5088864;28;20091;-46
2021/04/09 10:57:37;;;;;;;15.68;6.80;;;;;;;12.38;36.47;101330.44;5089083;28;20028;-47
2021/04/09 11:00:04;;;;;;;12.18;6.53;;;;;;;12.58;35.92;101327.25;5089527;28;20034;-46
2021/04/09 11:02:34;;;;;;;13.85;6.80;;;;;;;12.54;35.62;101328.78;5086617;28;20690;-46
2021/04/09 11:05:00;;;;;;;12.57;7.13;;;;;;;12.44;35.67;101325.16;5089484;28;20051;-47
2021/04/09 11:07:46;;;;;;;12.65;6.20;;;;;;;12.22;36.03;101319.72;5092519;28;20035;-47
2021/04/09 11:10:29;;;;;;;10.15;6.20;;;;;;;12.42;36.23;101317.34;5087468;28;20028;-46
2021/04/09 11:12:55;;;;;;;15.20;6.30;;;;;;;12.61;36.38;101313.31;5087748;28;20566;-47
2021/04/09 11:15:21;;;;;;;13.00;6.90;;;;;;;12.88;35.39;101309.91;5087626;28;20032;-46
2021/04/09 11:17:56;;;;;;;11.05;6.55;;;;;;;13.20;35.16;101312.75;5083266;28;20070;-46
2021/04/09 11:20:25;;;;;;;;;;;;;;;12.97;35.38;101309.22;5085665;28;20647;-46
2021/04/09 11:23:04;;;;;;;13.32;6.32;;;;;;;13.17;35.52;101310.53;5075618;28;19915;-46
2021/04/09 11:25:35;;;;;;;16.63;6.28;;;;;;;13.22;35.36;101307.94;5086841;28;20082;-46
2021/04/09 11:28:01;;;;;;;10.68;6.18;;;;;;;13.17;35.27;101295.22;5085194;28;20051;-46
2021/04/09 11:30:35;;;;;;;13.50;5.95;;;;;;;12.85;35.89;101287.00;5088299;28;20028;-48
2021/04/09 11:33:02;;;;;;;10.67;5.47;;;;;;;13.06;36.08;101280.00;5088182;28;20038;-46
2021/04/09 11:35:38;;;;;;;11.80;6.13;;;;;;;13.26;35.60;101282.94;5087536;28;20693;-46